ESOK/KSD METAR and TAF weather

Enter ICAO airport designator
Station Type Date Time Source
ESOK METAR 2019/02/23 02:20 UTC NOAA

ESOK 230220Z AUTO 22005KT 5000 BR OVC004/// 01/01 Q1036


Station Type Date Time Source
ESOK Decoded METAR 2019/02/23 02:20 UTC NOAA

Karlstad , Sweden (ESOK) 59-26-41N 013-20-15E
Feb 22, 2019 - 09:20 PM EST / 2019.02.23 0220 UTC
Wind: from the SW (220 degrees) at 6 MPH (5 KT):0
Visibility: 3 mile(s):0
Sky conditions: overcast
Weather: mist
Temperature: 33 F (1 C)
Windchill: 26 F (-3 C):1
Dew Point: 33 F (1 C)
Relative Humidity: 100%
Pressure (altimeter): 30.59 in. Hg (1036 hPa)
ob: ESOK 230220Z AUTO 22005KT 5000 BR OVC004/// 01/01 Q1036
cycle: 2

Station Type Date Time Source
ESOK TAF 2017/05/22 06:33 UTC NOAA

TAF ESOK 220530Z 2206/2224 28006KT CAVOK


Example: see airport list